sensor_id;sensor_type;location;lat;lon;timestamp;pressure;altitude;pressure_sealevel;temperature
13570;BMP180;6856;51.460;7.158;2022-08-02T06:17:41;100666.00;;;20.90
13570;BMP180;6856;51.460;7.158;2022-08-02T06:20:19;100680.00;;;21.00
13570;BMP180;6856;51.460;7.158;2022-08-02T06:22:57;100685.00;;;21.10
13570;BMP180;6856;51.460;7.158;2022-08-02T06:25:35;100658.00;;;21.20
13570;BMP180;6856;51.460;7.158;2022-08-02T06:28:23;100687.00;;;21.30
13570;BMP180;6856;51.460;7.158;2022-08-02T06:30:58;100686.00;;;21.40
13570;BMP180;6856;51.460;7.158;2022-08-02T06:33:33;100682.00;;;21.50
13570;BMP180;6856;51.460;7.158;2022-08-02T06:36:14;100685.00;;;21.70
13570;BMP180;6856;51.460;7.158;2022-08-02T06:38:55;100681.00;;;21.80
13570;BMP180;6856;51.460;7.158;2022-08-02T06:41:39;100676.00;;;21.80
13570;BMP180;6856;51.460;7.158;2022-08-02T06:44:13;100674.00;;;22.00
13570;BMP180;6856;51.460;7.158;2022-08-02T06:47:07;100675.00;;;22.10
13570;BMP180;6856;51.460;7.158;2022-08-02T06:49:46;100661.00;;;22.10
13570;BMP180;6856;51.460;7.158;2022-08-02T06:52:26;100684.00;;;22.30
13570;BMP180;6856;51.460;7.158;2022-08-02T06:55:04;100683.00;;;22.30
13570;BMP180;6856;51.460;7.158;2022-08-02T06:57:39;100685.00;;;22.40
13570;BMP180;6856;51.460;7.158;2022-08-02T07:00:14;100686.00;;;22.50
13570;BMP180;6856;51.460;7.158;2022-08-02T07:02:50;100697.00;;;22.60
13570;BMP180;6856;51.460;7.158;2022-08-02T07:05:25;100673.00;;;22.70
13570;BMP180;6856;51.460;7.158;2022-08-02T07:08:00;100687.00;;;22.80
13570;BMP180;6856;51.460;7.158;2022-08-02T07:10:34;100686.00;;;22.90
13570;BMP180;6856;51.460;7.158;2022-08-02T07:13:08;100687.00;;;23.00
13570;BMP180;6856;51.460;7.158;2022-08-02T07:15:42;100684.00;;;23.10
13570;BMP180;6856;51.460;7.158;2022-08-02T07:18:23;100692.00;;;23.20
13570;BMP180;6856;51.460;7.158;2022-08-02T07:21:00;100680.00;;;23.30
13570;BMP180;6856;51.460;7.158;2022-08-02T07:23:35;100684.00;;;23.40
13570;BMP180;6856;51.460;7.158;2022-08-02T07:26:09;100688.00;;;23.50
13570;BMP180;6856;51.460;7.158;2022-08-02T07:28:43;100686.00;;;23.60
13570;BMP180;6856;51.460;7.158;2022-08-02T07:31:16;100679.00;;;23.70
13570;BMP180;6856;51.460;7.158;2022-08-02T07:33:50;100683.00;;;23.80
13570;BMP180;6856;51.460;7.158;2022-08-02T07:36:25;100685.00;;;23.90
13570;BMP180;6856;51.460;7.158;2022-08-02T07:38:59;100622.00;;;24.00
13570;BMP180;6856;51.460;7.158;2022-08-02T07:41:33;100692.00;;;24.20
13570;BMP180;6856;51.460;7.158;2022-08-02T07:44:06;100690.00;;;24.30
13570;BMP180;6856;51.460;7.158;2022-08-02T07:46:40;100689.00;;;24.40
13570;BMP180;6856;51.460;7.158;2022-08-02T07:49:13;100686.00;;;24.50
13570;BMP180;6856;51.460;7.158;2022-08-02T07:51:52;100692.00;;;24.60
13570;BMP180;6856;51.460;7.158;2022-08-02T07:54:26;100682.00;;;24.70
13570;BMP180;6856;51.460;7.158;2022-08-02T07:56:59;100684.00;;;24.80
13570;BMP180;6856;51.460;7.158;2022-08-02T07:59:33;100669.00;;;24.90
13570;BMP180;6856;51.460;7.158;2022-08-02T08:02:07;100681.00;;;25.00
13570;BMP180;6856;51.460;7.158;2022-08-02T08:04:41;100680.00;;;25.20
13570;BMP180;6856;51.460;7.158;2022-08-02T08:07:17;100679.00;;;25.30
13570;BMP180;6856;51.460;7.158;2022-08-02T08:09:51;100677.00;;;25.40
13570;BMP180;6856;51.460;7.158;2022-08-02T08:12:28;100674.00;;;25.50
13570;BMP180;6856;51.460;7.158;2022-08-02T08:15:03;100683.00;;;25.70
13570;BMP180;6856;51.460;7.158;2022-08-02T08:17:37;100678.00;;;25.70
13570;BMP180;6856;51.460;7.158;2022-08-02T08:20:11;100673.00;;;25.80
13570;BMP180;6856;51.460;7.158;2022-08-02T08:22:48;100681.00;;;25.90
13570;BMP180;6856;51.460;7.158;2022-08-02T08:25:22;100661.00;;;26.00
13570;BMP180;6856;51.460;7.158;2022-08-02T08:27:58;100671.00;;;26.20
13570;BMP180;6856;51.460;7.158;2022-08-02T08:30:32;100662.00;;;26.30
13570;BMP180;6856;51.460;7.158;2022-08-02T08:33:06;100665.00;;;26.40
13570;BMP180;6856;51.460;7.158;2022-08-02T08:35:40;100662.00;;;26.50
13570;BMP180;6856;51.460;7.158;2022-08-02T08:38:16;100667.00;;;26.60
13570;BMP180;6856;51.460;7.158;2022-08-02T08:40:50;100660.00;;;26.70
13570;BMP180;6856;51.460;7.158;2022-08-02T08:43:24;100678.00;;;26.80
13570;BMP180;6856;51.460;7.158;2022-08-02T08:45:59;100663.00;;;26.90
13570;BMP180;6856;51.460;7.158;2022-08-02T08:48:40;100670.00;;;27.00
13570;BMP180;6856;51.460;7.158;2022-08-02T08:51:20;100665.00;;;27.10
13570;BMP180;6856;51.460;7.158;2022-08-02T08:54:01;100662.00;;;27.20
13570;BMP180;6856;51.460;7.158;2022-08-02T08:56:38;100657.00;;;27.30
13570;BMP180;6856;51.460;7.158;2022-08-02T08:59:12;100667.00;;;27.40
13570;BMP180;6856;51.460;7.158;2022-08-02T09:01:48;100668.00;;;27.50
13570;BMP180;6856;51.460;7.158;2022-08-02T09:04:22;100670.00;;;27.60
13570;BMP180;6856;51.460;7.158;2022-08-02T09:06:56;100658.00;;;27.70
13570;BMP180;6856;51.460;7.158;2022-08-02T09:09:31;100657.00;;;27.80
13570;BMP180;6856;51.460;7.158;2022-08-02T09:12:15;100657.00;;;27.90
13570;BMP180;6856;51.460;7.158;2022-08-02T09:14:49;100666.00;;;28.10
13570;BMP180;6856;51.460;7.158;2022-08-02T09:17:24;100640.00;;;28.20
13570;BMP180;6856;51.460;7.158;2022-08-02T09:20:07;100657.00;;;28.30
13570;BMP180;6856;51.460;7.158;2022-08-02T09:22:41;100665.00;;;28.40
13570;BMP180;6856;51.460;7.158;2022-08-02T09:25:16;100656.00;;;28.40
13570;BMP180;6856;51.460;7.158;2022-08-02T09:27:50;100652.00;;;28.60
13570;BMP180;6856;51.460;7.158;2022-08-02T09:30:25;100658.00;;;28.60
13570;BMP180;6856;51.460;7.158;2022-08-02T09:32:59;100661.00;;;28.70
13570;BMP180;6856;51.460;7.158;2022-08-02T09:35:38;100662.00;;;28.80
13570;BMP180;6856;51.460;7.158;2022-08-02T09:38:33;100671.00;;;28.90
13570;BMP180;6856;51.460;7.158;2022-08-02T09:41:22;100656.00;;;28.90
13570;BMP180;6856;51.460;7.158;2022-08-02T09:43:58;100656.00;;;29.00
13570;BMP180;6856;51.460;7.158;2022-08-02T09:46:39;100659.00;;;29.10
13570;BMP180;6856;51.460;7.158;2022-08-02T09:49:14;100662.00;;;29.10
13570;BMP180;6856;51.460;7.158;2022-08-02T09:51:51;100664.00;;;29.20
13570;BMP180;6856;51.460;7.158;2022-08-02T09:54:28;100667.00;;;29.30
13570;BMP180;6856;51.460;7.158;2022-08-02T09:57:03;100654.00;;;29.40
13570;BMP180;6856;51.460;7.158;2022-08-02T09:59:37;100659.00;;;29.40
13570;BMP180;6856;51.460;7.158;2022-08-02T10:02:10;100660.00;;;29.50
13570;BMP180;6856;51.460;7.158;2022-08-02T10:04:49;100658.00;;;29.50
13570;BMP180;6856;51.460;7.158;2022-08-02T10:07:24;100664.00;;;29.60
13570;BMP180;6856;51.460;7.158;2022-08-02T10:09:58;100654.00;;;29.60
13570;BMP180;6856;51.460;7.158;2022-08-02T10:12:35;100659.00;;;29.70
13570;BMP180;6856;51.460;7.158;2022-08-02T10:15:10;100659.00;;;29.70
13570;BMP180;6856;51.460;7.158;2022-08-02T10:17:44;100660.00;;;29.80
13570;BMP180;6856;51.460;7.158;2022-08-02T10:20:19;100663.00;;;29.80
13570;BMP180;6856;51.460;7.158;2022-08-02T10:22:56;100658.00;;;29.80
13570;BMP180;6856;51.460;7.158;2022-08-02T10:25:31;100664.00;;;29.90
13570;BMP180;6856;51.460;7.158;2022-08-02T10:28:08;100647.00;;;29.90
13570;BMP180;6856;51.460;7.158;2022-08-02T10:30:49;100660.00;;;30.00
13570;BMP180;6856;51.460;7.158;2022-08-02T10:33:24;100665.00;;;30.10
13570;BMP180;6856;51.460;7.158;2022-08-02T10:35:59;100659.00;;;30.10
13570;BMP180;6856;51.460;7.158;2022-08-02T10:38:38;100658.00;;;30.20
13570;BMP180;6856;51.460;7.158;2022-08-02T10:41:12;100644.00;;;30.20
13570;BMP180;6856;51.460;7.158;2022-08-02T10:43:48;100653.00;;;30.30
13570;BMP180;6856;51.460;7.158;2022-08-02T10:46:34;100651.00;;;30.30
13570;BMP180;6856;51.460;7.158;2022-08-02T10:49:11;100645.00;;;30.40
13570;BMP180;6856;51.460;7.158;2022-08-02T10:52:07;100619.00;;;30.50
13570;BMP180;6856;51.460;7.158;2022-08-02T10:54:47;100638.00;;;30.60
13570;BMP180;6856;51.460;7.158;2022-08-02T10:57:30;100639.00;;;30.70
13570;BMP180;6856;51.460;7.158;2022-08-02T11:00:23;100631.00;;;30.80
13570;BMP180;6856;51.460;7.158;2022-08-02T11:02:57;100640.00;;;30.90
13570;BMP180;6856;51.460;7.158;2022-08-02T11:05:33;100631.00;;;31.00
13570;BMP180;6856;51.460;7.158;2022-08-02T11:08:20;100633.00;;;31.10
13570;BMP180;6856;51.460;7.158;2022-08-02T11:10:59;100637.00;;;31.10
13570;BMP180;6856;51.460;7.158;2022-08-02T11:14:00;100624.00;;;31.20
13570;BMP180;6856;51.460;7.158;2022-08-02T11:17:11;100623.00;;;31.20
13570;BMP180;6856;51.460;7.158;2022-08-02T11:20:16;100624.00;;;31.30
13570;BMP180;6856;51.460;7.158;2022-08-02T11:22:52;100630.00;;;31.30
13570;BMP180;6856;51.460;7.158;2022-08-02T11:25:34;100619.00;;;31.40
13570;BMP180;6856;51.460;7.158;2022-08-02T11:28:28;100611.00;;;31.40
13570;BMP180;6856;51.460;7.158;2022-08-02T11:31:02;100618.00;;;31.50
13570;BMP180;6856;51.460;7.158;2022-08-02T11:33:37;100624.00;;;31.50
13570;BMP180;6856;51.460;7.158;2022-08-02T11:36:12;100618.00;;;31.50
13570;BMP180;6856;51.460;7.158;2022-08-02T11:38:46;100631.00;;;31.60
13570;BMP180;6856;51.460;7.158;2022-08-02T11:41:21;100638.00;;;31.60
13570;BMP180;6856;51.460;7.158;2022-08-02T11:44:15;100624.00;;;31.70
13570;BMP180;6856;51.460;7.158;2022-08-02T11:46:55;100623.00;;;31.60
13570;BMP180;6856;51.460;7.158;2022-08-02T11:49:30;100623.00;;;31.60
13570;BMP180;6856;51.460;7.158;2022-08-02T11:52:06;100615.00;;;31.60
13570;BMP180;6856;51.460;7.158;2022-08-02T11:54:43;100612.00;;;31.60
13570;BMP180;6856;51.460;7.158;2022-08-02T11:57:19;100606.00;;;31.70
13570;BMP180;6856;51.460;7.158;2022-08-02T11:59:56;100622.00;;;31.70
13570;BMP180;6856;51.460;7.158;2022-08-02T12:02:31;100613.00;;;31.70
13570;BMP180;6856;51.460;7.158;2022-08-02T12:05:15;100609.00;;;31.80
13570;BMP180;6856;51.460;7.158;2022-08-02T12:07:51;100602.00;;;31.80
13570;BMP180;6856;51.460;7.158;2022-08-02T12:10:31;100599.00;;;31.80
13570;BMP180;6856;51.460;7.158;2022-08-02T12:13:07;100604.00;;;31.80
13570;BMP180;6856;51.460;7.158;2022-08-02T12:15:45;100587.00;;;31.90
13570;BMP180;6856;51.460;7.158;2022-08-02T12:18:21;100591.00;;;31.90
13570;BMP180;6856;51.460;7.158;2022-08-02T12:21:31;100601.00;;;31.90
13570;BMP180;6856;51.460;7.158;2022-08-02T12:24:05;100607.00;;;31.90
13570;BMP180;6856;51.460;7.158;2022-08-02T12:26:43;100588.00;;;31.90
13570;BMP180;6856;51.460;7.158;2022-08-02T12:29:29;100593.00;;;31.90
13570;BMP180;6856;51.460;7.158;2022-08-02T12:32:25;100606.00;;;32.00
13570;BMP180;6856;51.460;7.158;2022-08-02T12:35:06;100587.00;;;32.00
13570;BMP180;6856;51.460;7.158;2022-08-02T12:37:45;100607.00;;;32.00
13570;BMP180;6856;51.460;7.158;2022-08-02T12:40:24;100606.00;;;32.00
13570;BMP180;6856;51.460;7.158;2022-08-02T12:42:59;100606.00;;;32.00
13570;BMP180;6856;51.460;7.158;2022-08-02T12:45:54;100580.00;;;32.00
13570;BMP180;6856;51.460;7.158;2022-08-02T12:48:35;100604.00;;;32.00
13570;BMP180;6856;51.460;7.158;2022-08-02T12:51:37;100602.00;;;32.00
13570;BMP180;6856;51.460;7.158;2022-08-02T12:54:39;100603.00;;;32.10
13570;BMP180;6856;51.460;7.158;2022-08-02T12:57:15;100590.00;;;32.10
13570;BMP180;6856;51.460;7.158;2022-08-02T12:59:52;100598.00;;;32.10
13570;BMP180;6856;51.460;7.158;2022-08-02T13:02:26;100601.00;;;32.20
13570;BMP180;6856;51.460;7.158;2022-08-02T13:05:00;100587.00;;;32.10
13570;BMP180;6856;51.460;7.158;2022-08-02T13:07:34;100581.00;;;32.20
13570;BMP180;6856;51.460;7.158;2022-08-02T13:10:09;100590.00;;;32.20
13570;BMP180;6856;51.460;7.158;2022-08-02T13:12:44;100587.00;;;32.20
13570;BMP180;6856;51.460;7.158;2022-08-02T13:15:19;100582.00;;;32.20
13570;BMP180;6856;51.460;7.158;2022-08-02T13:18:13;100570.00;;;32.20
13570;BMP180;6856;51.460;7.158;2022-08-02T13:20:48;100581.00;;;32.20
13570;BMP180;6856;51.460;7.158;2022-08-02T13:23:22;100583.00;;;32.20
13570;BMP180;6856;51.460;7.158;2022-08-02T13:26:18;100574.00;;;32.20
13570;BMP180;6856;51.460;7.158;2022-08-02T13:28:52;100564.00;;;32.30
13570;BMP180;6856;51.460;7.158;2022-08-02T13:31:29;100572.00;;;32.30
13570;BMP180;6856;51.460;7.158;2022-08-02T13:34:08;100564.00;;;32.30
13570;BMP180;6856;51.460;7.158;2022-08-02T13:36:42;100567.00;;;32.30
13570;BMP180;6856;51.460;7.158;2022-08-02T13:39:16;100567.00;;;32.30
13570;BMP180;6856;51.460;7.158;2022-08-02T13:41:51;100560.00;;;32.40
13570;BMP180;6856;51.460;7.158;2022-08-02T13:44:27;100568.00;;;32.40
13570;BMP180;6856;51.460;7.158;2022-08-02T13:47:03;100547.00;;;32.40
13570;BMP180;6856;51.460;7.158;2022-08-02T13:49:37;100555.00;;;32.40
13570;BMP180;6856;51.460;7.158;2022-08-02T13:52:27;100502.00;;;32.50
13570;BMP180;6856;51.460;7.158;2022-08-02T13:55:03;100558.00;;;32.50
13570;BMP180;6856;51.460;7.158;2022-08-02T13:57:45;100545.00;;;32.50
13570;BMP180;6856;51.460;7.158;2022-08-02T14:00:27;100548.00;;;32.50
13570;BMP180;6856;51.460;7.158;2022-08-02T14:03:08;100555.00;;;32.50
13570;BMP180;6856;51.460;7.158;2022-08-02T14:05:43;100555.00;;;32.60
13570;BMP180;6856;51.460;7.158;2022-08-02T14:08:20;100542.00;;;32.60
13570;BMP180;6856;51.460;7.158;2022-08-02T14:10:55;100557.00;;;32.50
13570;BMP180;6856;51.460;7.158;2022-08-02T14:13:30;100517.00;;;32.50
13570;BMP180;6856;51.460;7.158;2022-08-02T14:16:07;100538.00;;;32.50
13570;BMP180;6856;51.460;7.158;2022-08-02T14:18:41;100554.00;;;32.50
13570;BMP180;6856;51.460;7.158;2022-08-02T14:21:15;100527.00;;;32.50
13570;BMP180;6856;51.460;7.158;2022-08-02T14:23:49;100529.00;;;32.60
13570;BMP180;6856;51.460;7.158;2022-08-02T14:26:23;100542.00;;;32.60
13570;BMP180;6856;51.460;7.158;2022-08-02T14:29:00;100530.00;;;32.60
13570;BMP180;6856;51.460;7.158;2022-08-02T14:31:37;100525.00;;;32.60
13570;BMP180;6856;51.460;7.158;2022-08-02T14:34:16;100524.00;;;32.60
13570;BMP180;6856;51.460;7.158;2022-08-02T14:36:49;100532.00;;;32.60
13570;BMP180;6856;51.460;7.158;2022-08-02T14:39:25;100522.00;;;32.70
13570;BMP180;6856;51.460;7.158;2022-08-02T14:42:24;100526.00;;;32.70
13570;BMP180;6856;51.460;7.158;2022-08-02T14:45:00;100524.00;;;32.60
13570;BMP180;6856;51.460;7.158;2022-08-02T14:47:37;100528.00;;;32.60
13570;BMP180;6856;51.460;7.158;2022-08-02T14:50:21;100467.00;;;32.70
13570;BMP180;6856;51.460;7.158;2022-08-02T14:52:57;100515.00;;;32.70
13570;BMP180;6856;51.460;7.158;2022-08-02T14:55:33;100521.00;;;32.60
13570;BMP180;6856;51.460;7.158;2022-08-02T14:58:07;100478.00;;;32.70
13570;BMP180;6856;51.460;7.158;2022-08-02T15:00:42;100501.00;;;32.70
13570;BMP180;6856;51.460;7.158;2022-08-02T15:03:16;100494.00;;;32.70
13570;BMP180;6856;51.460;7.158;2022-08-02T15:05:51;100487.00;;;32.70
13570;BMP180;6856;51.460;7.158;2022-08-02T15:08:25;100469.00;;;32.70
13570;BMP180;6856;51.460;7.158;2022-08-02T15:10:59;100473.00;;;32.70
13570;BMP180;6856;51.460;7.158;2022-08-02T15:13:34;100486.00;;;32.60
13570;BMP180;6856;51.460;7.158;2022-08-02T15:16:15;100506.00;;;32.60
13570;BMP180;6856;51.460;7.158;2022-08-02T15:18:49;100497.00;;;32.60
13570;BMP180;6856;51.460;7.158;2022-08-02T15:21:22;100483.00;;;32.60
13570;BMP180;6856;51.460;7.158;2022-08-02T15:24:16;100487.00;;;32.60
13570;BMP180;6856;51.460;7.158;2022-08-02T15:26:50;100477.00;;;32.60
13570;BMP180;6856;51.460;7.158;2022-08-02T15:29:24;100483.00;;;32.60
13570;BMP180;6856;51.460;7.158;2022-08-02T15:31:59;100477.00;;;32.60
13570;BMP180;6856;51.460;7.158;2022-08-02T15:34:34;100476.00;;;32.60
13570;BMP180;6856;51.460;7.158;2022-08-02T15:37:08;100481.00;;;32.60
13570;BMP180;6856;51.460;7.158;2022-08-02T15:39:42;100492.00;;;32.60
13570;BMP180;6856;51.460;7.158;2022-08-02T15:42:18;100489.00;;;32.50
13570;BMP180;6856;51.460;7.158;2022-08-02T15:45:02;100479.00;;;32.50
13570;BMP180;6856;51.460;7.158;2022-08-02T15:47:37;100489.00;;;32.50
13570;BMP180;6856;51.460;7.158;2022-08-02T15:50:19;100485.00;;;32.50
13570;BMP180;6856;51.460;7.158;2022-08-02T15:52:52;100483.00;;;32.50
13570;BMP180;6856;51.460;7.158;2022-08-02T15:55:26;100483.00;;;32.50
13570;BMP180;6856;51.460;7.158;2022-08-02T15:58:11;100485.00;;;32.50
13570;BMP180;6856;51.460;7.158;2022-08-02T16:00:49;100475.00;;;32.50
13570;BMP180;6856;51.460;7.158;2022-08-02T16:03:24;100490.00;;;32.40
13570;BMP180;6856;51.460;7.158;2022-08-02T16:05:58;100482.00;;;32.40
13570;BMP180;6856;51.460;7.158;2022-08-02T16:08:36;100483.00;;;32.60
13570;BMP180;6856;51.460;7.158;2022-08-02T16:11:16;100492.00;;;32.60
13570;BMP180;6856;51.460;7.158;2022-08-02T16:13:50;100471.00;;;32.60
13570;BMP180;6856;51.460;7.158;2022-08-02T16:16:29;100443.00;;;32.60
13570;BMP180;6856;51.460;7.158;2022-08-02T16:19:21;100469.00;;;32.70
13570;BMP180;6856;51.460;7.158;2022-08-02T16:22:23;100487.00;;;32.60
13570;BMP180;6856;51.460;7.158;2022-08-02T16:25:05;100447.00;;;32.70
13570;BMP180;6856;51.460;7.158;2022-08-02T16:27:51;100492.00;;;32.70
13570;BMP180;6856;51.460;7.158;2022-08-02T16:31:04;100454.00;;;32.70
13570;BMP180;6856;51.460;7.158;2022-08-02T16:34:03;100457.00;;;32.80
13570;BMP180;6856;51.460;7.158;2022-08-02T16:37:04;100436.00;;;32.80
13570;BMP180;6856;51.460;7.158;2022-08-02T16:40:26;100469.00;;;32.70
13570;BMP180;6856;51.460;7.158;2022-08-02T16:43:37;100464.00;;;32.80
13570;BMP180;6856;51.460;7.158;2022-08-02T16:46:52;100471.00;;;32.80
13570;BMP180;6856;51.460;7.158;2022-08-02T16:49:42;100446.00;;;32.70
13570;BMP180;6856;51.460;7.158;2022-08-02T16:52:38;100428.00;;;32.70
13570;BMP180;6856;51.460;7.158;2022-08-02T16:55:16;100410.00;;;32.70
13570;BMP180;6856;51.460;7.158;2022-08-02T16:57:54;100427.00;;;32.60
13570;BMP180;6856;51.460;7.158;2022-08-02T17:00:47;100406.00;;;32.60
13570;BMP180;6856;51.460;7.158;2022-08-02T17:04:08;100435.00;;;32.60
13570;BMP180;6856;51.460;7.158;2022-08-02T17:06:47;100424.00;;;32.70
13570;BMP180;6856;51.460;7.158;2022-08-02T17:09:24;100433.00;;;32.70
13570;BMP180;6856;51.460;7.158;2022-08-02T17:12:18;100441.00;;;32.70
13570;BMP180;6856;51.460;7.158;2022-08-02T17:15:16;100421.00;;;32.50
13570;BMP180;6856;51.460;7.158;2022-08-02T17:18:26;100412.00;;;32.50
13570;BMP180;6856;51.460;7.158;2022-08-02T17:21:22;100418.00;;;32.50
13570;BMP180;6856;51.460;7.158;2022-08-02T17:23:57;100456.00;;;32.60
13570;BMP180;6856;51.460;7.158;2022-08-02T17:27:18;100394.00;;;32.60
13570;BMP180;6856;51.460;7.158;2022-08-02T17:29:56;100410.00;;;32.60
13570;BMP180;6856;51.460;7.158;2022-08-02T17:32:42;100365.00;;;32.60
13570;BMP180;6856;51.460;7.158;2022-08-02T17:35:17;100399.00;;;32.50
13570;BMP180;6856;51.460;7.158;2022-08-02T17:38:01;100375.00;;;32.60
13570;BMP180;6856;51.460;7.158;2022-08-02T17:40:56;100392.00;;;32.60
13570;BMP180;6856;51.460;7.158;2022-08-02T17:43:48;100434.00;;;32.50
13570;BMP180;6856;51.460;7.158;2022-08-02T17:46:22;100429.00;;;32.60
13570;BMP180;6856;51.460;7.158;2022-08-02T17:48:59;100446.00;;;32.50
13570;BMP180;6856;51.460;7.158;2022-08-02T17:52:02;100393.00;;;32.50
13570;BMP180;6856;51.460;7.158;2022-08-02T17:55:00;100415.00;;;32.50
13570;BMP180;6856;51.460;7.158;2022-08-02T17:58:26;100431.00;;;32.40
13570;BMP180;6856;51.460;7.158;2022-08-02T18:01:10;100418.00;;;32.30
13570;BMP180;6856;51.460;7.158;2022-08-02T18:04:49;100434.00;;;32.30
13570;BMP180;6856;51.460;7.158;2022-08-02T18:07:52;100431.00;;;32.30
13570;BMP180;6856;51.460;7.158;2022-08-02T18:10:32;100425.00;;;32.20
13570;BMP180;6856;51.460;7.158;2022-08-02T18:13:06;100433.00;;;32.20
13570;BMP180;6856;51.460;7.158;2022-08-02T18:15:43;100430.00;;;32.10
13570;BMP180;6856;51.460;7.158;2022-08-02T18:18:19;100424.00;;;32.10
13570;BMP180;6856;51.460;7.158;2022-08-02T18:21:01;100427.00;;;32.00
13570;BMP180;6856;51.460;7.158;2022-08-02T18:23:53;100434.00;;;32.00
13570;BMP180;6856;51.460;7.158;2022-08-02T18:26:30;100432.00;;;32.00
13570;BMP180;6856;51.460;7.158;2022-08-02T18:29:04;100437.00;;;31.90
13570;BMP180;6856;51.460;7.158;2022-08-02T18:31:40;100440.00;;;31.90
13570;BMP180;6856;51.460;7.158;2022-08-02T18:34:24;100414.00;;;31.80
13570;BMP180;6856;51.460;7.158;2022-08-02T18:36:59;100430.00;;;31.80
13570;BMP180;6856;51.460;7.158;2022-08-02T18:39:33;100440.00;;;31.70
13570;BMP180;6856;51.460;7.158;2022-08-02T18:42:09;100448.00;;;31.80
13570;BMP180;6856;51.460;7.158;2022-08-02T18:44:48;100438.00;;;31.70
13570;BMP180;6856;51.460;7.158;2022-08-02T18:47:23;100431.00;;;31.70
13570;BMP180;6856;51.460;7.158;2022-08-02T18:50:07;100438.00;;;31.70
13570;BMP180;6856;51.460;7.158;2022-08-02T18:52:43;100434.00;;;31.60
13570;BMP180;6856;51.460;7.158;2022-08-02T18:55:19;100442.00;;;31.60
13570;BMP180;6856;51.460;7.158;2022-08-02T18:58:13;100438.00;;;31.50
13570;BMP180;6856;51.460;7.158;2022-08-02T19:00:51;100447.00;;;31.50
13570;BMP180;6856;51.460;7.158;2022-08-02T19:03:26;100439.00;;;31.40
13570;BMP180;6856;51.460;7.158;2022-08-02T19:06:01;100416.00;;;31.40
13570;BMP180;6856;51.460;7.158;2022-08-02T19:08:38;100444.00;;;31.40
13570;BMP180;6856;51.460;7.158;2022-08-02T19:11:12;100443.00;;;31.30
13570;BMP180;6856;51.460;7.158;2022-08-02T19:13:46;100442.00;;;31.30
13570;BMP180;6856;51.460;7.158;2022-08-02T19:16:21;100445.00;;;31.30
13570;BMP180;6856;51.460;7.158;2022-08-02T19:19:08;100433.00;;;31.20
13570;BMP180;6856;51.460;7.158;2022-08-02T19:21:52;100432.00;;;31.20
13570;BMP180;6856;51.460;7.158;2022-08-02T19:24:47;100449.00;;;31.10
13570;BMP180;6856;51.460;7.158;2022-08-02T19:27:33;100451.00;;;31.10
13570;BMP180;6856;51.460;7.158;2022-08-02T19:30:09;100460.00;;;31.00
13570;BMP180;6856;51.460;7.158;2022-08-02T19:32:45;100452.00;;;31.00
13570;BMP180;6856;51.460;7.158;2022-08-02T19:35:31;100448.00;;;30.90
13570;BMP180;6856;51.460;7.158;2022-08-02T19:38:09;100460.00;;;30.90
13570;BMP180;6856;51.460;7.158;2022-08-02T19:40:43;100453.00;;;30.80
13570;BMP180;6856;51.460;7.158;2022-08-02T19:43:17;100469.00;;;30.70
13570;BMP180;6856;51.460;7.158;2022-08-02T19:46:12;100462.00;;;30.70
13570;BMP180;6856;51.460;7.158;2022-08-02T19:48:47;100460.00;;;30.60
13570;BMP180;6856;51.460;7.158;2022-08-02T19:51:21;100457.00;;;30.50
13570;BMP180;6856;51.460;7.158;2022-08-02T19:54:17;100469.00;;;30.50
13570;BMP180;6856;51.460;7.158;2022-08-02T19:57:07;100470.00;;;30.40
13570;BMP180;6856;51.460;7.158;2022-08-02T19:59:44;100476.00;;;30.30
13570;BMP180;6856;51.460;7.158;2022-08-02T20:02:21;100471.00;;;30.30
13570;BMP180;6856;51.460;7.158;2022-08-02T20:04:55;100472.00;;;30.20
13570;BMP180;6856;51.460;7.158;2022-08-02T20:07:29;100470.00;;;30.10
13570;BMP180;6856;51.460;7.158;2022-08-02T20:10:25;100464.00;;;30.10
13570;BMP180;6856;51.460;7.158;2022-08-02T20:12:58;100457.00;;;30.00
13570;BMP180;6856;51.460;7.158;2022-08-02T20:15:34;100469.00;;;29.90
13570;BMP180;6856;51.460;7.158;2022-08-02T20:18:28;100466.00;;;29.90
13570;BMP180;6856;51.460;7.158;2022-08-02T20:21:03;100473.00;;;29.80
13570;BMP180;6856;51.460;7.158;2022-08-02T20:23:57;100468.00;;;29.70
13570;BMP180;6856;51.460;7.158;2022-08-02T20:26:32;100470.00;;;29.60
13570;BMP180;6856;51.460;7.158;2022-08-02T20:29:09;100465.00;;;29.60
13570;BMP180;6856;51.460;7.158;2022-08-02T20:31:44;100474.00;;;29.50
13570;BMP180;6856;51.460;7.158;2022-08-02T20:34:18;100482.00;;;29.50
13570;BMP180;6856;51.460;7.158;2022-08-02T20:36:57;100478.00;;;29.40
13570;BMP180;6856;51.460;7.158;2022-08-02T20:39:51;100481.00;;;29.40
13570;BMP180;6856;51.460;7.158;2022-08-02T20:42:28;100485.00;;;29.30
13570;BMP180;6856;51.460;7.158;2022-08-02T20:45:02;100477.00;;;29.20
13570;BMP180;6856;51.460;7.158;2022-08-02T20:47:36;100480.00;;;29.20
13570;BMP180;6856;51.460;7.158;2022-08-02T20:50:12;100477.00;;;29.10
13570;BMP180;6856;51.460;7.158;2022-08-02T20:53:04;100474.00;;;29.10
13570;BMP180;6856;51.460;7.158;2022-08-02T20:55:55;100479.00;;;29.00
13570;BMP180;6856;51.460;7.158;2022-08-02T20:58:32;100473.00;;;28.90
13570;BMP180;6856;51.460;7.158;2022-08-02T21:01:07;100476.00;;;28.90
13570;BMP180;6856;51.460;7.158;2022-08-02T21:03:41;100472.00;;;28.80
13570;BMP180;6856;51.460;7.158;2022-08-02T21:06:25;100476.00;;;28.80
13570;BMP180;6856;51.460;7.158;2022-08-02T21:08:59;100454.00;;;28.70
13570;BMP180;6856;51.460;7.158;2022-08-02T21:16:42;100469.00;;;28.50
13570;BMP180;6856;51.460;7.158;2022-08-02T21:19:16;100474.00;;;28.50
13570;BMP180;6856;51.460;7.158;2022-08-02T21:21:52;100466.00;;;28.40
13570;BMP180;6856;51.460;7.158;2022-08-02T21:24:27;100469.00;;;28.40
13570;BMP180;6856;51.460;7.158;2022-08-02T21:27:02;100467.00;;;28.30
13570;BMP180;6856;51.460;7.158;2022-08-02T21:29:56;100470.00;;;28.30
13570;BMP180;6856;51.460;7.158;2022-08-02T21:32:31;100473.00;;;28.20
13570;BMP180;6856;51.460;7.158;2022-08-02T21:35:07;100475.00;;;28.20
13570;BMP180;6856;51.460;7.158;2022-08-02T21:37:41;100479.00;;;28.20
13570;BMP180;6856;51.460;7.158;2022-08-02T21:40:17;100477.00;;;28.10
13570;BMP180;6856;51.460;7.158;2022-08-02T21:42:51;100483.00;;;28.10
13570;BMP180;6856;51.460;7.158;2022-08-02T21:45:26;100477.00;;;28.00